Terminal Aerodrome Forecast
Issued by NWS Charleston, WV

Current Version | Previous Version | Text Only | Print | Product List | Glossary Off
Versions: 1 2 3 4 5 6 7 8 9 10 11 12 13 14 15 16 17 18 19 20 21 22 23 24

000
FTUS41 KRLX 292300
TAFEKN
TAF
KEKN 292320Z 3000/3024 00000KT P6SM SKC
     FM300500 00000KT 5SM BR FEW250
     FM300700 00000KT 1/4SM FG VV001
     FM301000 00000KT 3SM BR SCT001 SCT250
     FM301200 00000KT P6SM BKN040
     FM301600 26005KT P6SM FEW040=

USA.gov is the U.S. government's official web portal to all federal, state and local government web resources and services.